Etusivu
METAR-TAF:

METAR-TAF

Lentoasemat :

Tšita, Venäjä

Leveyspiiri: 52-05N, Pituuspiiri: 113-29E, korkeus merenpinnasta: 685 m

Tämänhetkinen sää

Tämä raportti tehtiin 33 minuuttia sitten, kello 09.30 UTC
Tuuli 2 kn eri suunnista
Lämpötila 0°C
Kosteus 74%
Ilmanpaine 1022 hPa
Näkyvyys 10 km tai enemmän

METAR: UIAA 220930Z VRB01MPS 9999 NSC 00/M04 Q1022 R29/CLRD70 NOSIG RMK QFE708/0944

Aika: 19:03 (10:03 UTC)

Sääennuste

Tämä raportti tehtiin 2 tuntia ja 3 minuuttia sitten, kello 08.00 UTC
Ennuste voimassa 22. päivästä klo 09 UTC - 23. päivään klo 09 UTC
Tuuli 6 kn etelästä/kaakosta
Näkyvyys: 5000 m
Hajanaisia pilviä 3000 ft:n korkeudessa
savua

TAF: UIAA 220800Z 2209/2309 16003MPS 5000 FU SCT030

Säähavainnot ja -ennusteet yli 4000 lentoasemalta (METAR- ja TAF-raportit).

Käytössä olevat sääasemat on merkitty karttaan keltaisilla ja punaisilla pisteillä.

Aseta hiiri pisteen päälle nähdäksesi sääaseman nimen.

Klikkaa sitten nähdäksesi säähavainnot ja -ennusteet.

Kartan vaihtaminen: klikkaa mustalla rastilla varustettuja vihreitä pisteitä, niin voit zoomata sisään; viivalla varustettua vihreää pistettä, niin voit zoomata ulos tai vihreitä nuolia, niin pääset viereisille kartoille.


METAR-TAF: